createdAt,value
2023-02-24T00:00:38.687Z,6.96
2023-02-24T00:01:39.070Z,6.85
2023-02-24T00:02:39.148Z,6.95
2023-02-24T00:03:39.798Z,6.95
2023-02-24T00:04:40.414Z,6.93
2023-02-24T00:05:40.675Z,6.83
2023-02-24T00:06:41.294Z,6.86
2023-02-24T00:07:42.548Z,6.87
2023-02-24T00:08:42.749Z,6.8
2023-02-24T00:09:43.822Z,6.77
2023-02-24T00:10:44.185Z,6.8
2023-02-24T00:11:45.084Z,6.78
2023-02-24T00:12:45.277Z,6.68
2023-02-24T00:13:45.902Z,6.7
2023-02-24T00:14:46.835Z,6.74
2023-02-24T00:15:47.050Z,6.75
2023-02-24T00:16:48.049Z,6.72
2023-02-24T00:17:47.473Z,6.67
2023-02-24T00:18:48.705Z,6.67
2023-02-24T00:19:49.014Z,6.74
2023-02-24T00:20:49.268Z,6.67
2023-02-24T00:21:49.764Z,6.67
2023-02-24T00:22:49.408Z,6.57
2023-02-24T00:23:50.911Z,6.57
2023-02-24T00:24:51.322Z,6.7
2023-02-24T00:25:51.525Z,6.68
2023-02-24T00:26:52.054Z,6.6
2023-02-24T00:27:53.031Z,6.56
2023-02-24T00:28:53.716Z,6.56
2023-02-24T00:29:55.012Z,6.49
2023-02-24T00:30:55.789Z,6.46
2023-02-24T00:31:56.248Z,6.41
2023-02-24T00:32:56.593Z,6.49
2023-02-24T00:33:56.666Z,6.46
2023-02-24T00:34:57.170Z,6.43
2023-02-24T00:35:58.187Z,6.43
2023-02-24T00:36:59.130Z,6.39
2023-02-24T00:37:59.090Z,6.36
2023-02-24T00:39:00.014Z,6.32
2023-02-24T00:40:00.345Z,6.35
2023-02-24T00:41:01.279Z,6.44
2023-02-24T00:42:01.483Z,6.38
2023-02-24T00:43:01.664Z,6.36
2023-02-24T00:44:01.990Z,6.38
2023-02-24T00:45:02.655Z,6.35
2023-02-24T00:46:03.968Z,6.39
2023-02-24T00:47:04.112Z,6.34
2023-02-24T00:48:04.036Z,6.32
2023-02-24T00:49:04.965Z,6.35
2023-02-24T00:50:05.426Z,6.34
2023-02-24T00:51:05.951Z,6.32
2023-02-24T00:52:05.849Z,6.26
2023-02-24T00:53:06.492Z,6.32
2023-02-24T00:54:06.705Z,6.36
2023-02-24T00:55:06.761Z,6.46
2023-02-24T00:56:07.431Z,6.36
2023-02-24T00:57:08.433Z,6.39
2023-02-24T00:58:08.650Z,6.44
2023-02-24T00:59:08.904Z,6.44
2023-02-24T01:00:09.925Z,6.38
2023-02-24T01:01:10.940Z,6.38
2023-02-24T01:02:11.554Z,6.32
2023-02-24T01:03:11.802Z,6.39
2023-02-24T01:04:12.341Z,6.44
2023-02-24T01:05:12.727Z,6.39
2023-02-24T01:06:13.788Z,6.44
2023-02-24T01:07:14.346Z,6.38
2023-02-24T01:08:14.568Z,6.34
2023-02-24T01:09:15.486Z,6.35
2023-02-24T01:10:16.158Z,6.43
2023-02-24T01:11:16.101Z,6.36
2023-02-24T01:12:17.631Z,6.41
2023-02-24T01:13:17.562Z,6.43
2023-02-24T01:14:18.202Z,6.46
2023-02-24T01:15:18.836Z,6.41
2023-02-24T01:16:19.561Z,6.5
2023-02-24T01:17:18.976Z,6.52
2023-02-24T01:18:20.455Z,6.41
2023-02-24T01:19:20.394Z,6.5
2023-02-24T01:20:21.717Z,6.49
2023-02-24T01:21:23.072Z,6.43
2023-02-24T01:22:23.057Z,6.44
2023-02-24T01:23:24.289Z,6.36
2023-02-24T01:24:24.922Z,6.47
2023-02-24T01:25:25.459Z,6.41
2023-02-24T01:26:25.661Z,6.41
2023-02-24T01:27:26.603Z,6.35
2023-02-24T01:28:27.529Z,6.41
2023-02-24T01:29:28.034Z,6.31
2023-02-24T01:30:28.313Z,6.29
2023-02-24T01:31:30.128Z,6.29
2023-02-24T01:32:30.180Z,6.31
2023-02-24T01:33:30.385Z,6.26
2023-02-24T01:34:30.892Z,6.12
2023-02-24T01:35:31.386Z,6.19
2023-02-24T01:36:31.661Z,6.1
2023-02-24T01:37:32.562Z,6.09
2023-02-24T01:38:33.914Z,6.1
2023-02-24T01:39:34.868Z,6.09
2023-02-24T01:40:35.586Z,6.15
2023-02-24T01:41:36.064Z,6.22
2023-02-24T01:42:36.561Z,6.13
2023-02-24T01:43:37.205Z,6.13
2023-02-24T01:44:38.166Z,6.12
2023-02-24T01:45:38.781Z,6.13
2023-02-24T01:46:39.299Z,6.1
2023-02-24T01:47:39.446Z,6.01
2023-02-24T01:48:40.656Z,6.01
2023-02-24T01:49:40.852Z,6.16
2023-02-24T01:50:41.101Z,6.09
2023-02-24T01:51:42.091Z,6.1
2023-02-24T01:52:42.591Z,6.17
2023-02-24T01:53:43.050Z,6.26
2023-02-24T01:54:43.974Z,6.2
2023-02-24T01:55:45.504Z,6.2
2023-02-24T01:56:45.994Z,6.16
2023-02-24T01:57:46.270Z,6.15
2023-02-24T01:58:46.186Z,6.1
2023-02-24T01:59:47.383Z,6.13
2023-02-24T02:00:47.891Z,6.1
2023-02-24T02:01:49.046Z,6.06
2023-02-24T02:02:49.015Z,6.07
2023-02-24T02:03:49.388Z,6.05
2023-02-24T02:04:49.599Z,6.02
2023-02-24T02:05:50.101Z,6.05
2023-02-24T02:06:51.058Z,6.1
2023-02-24T02:07:52.105Z,6.01
2023-02-24T02:08:52.457Z,5.94
2023-02-24T02:09:53.091Z,5.99
2023-02-24T02:10:53.666Z,6.01
2023-02-24T02:11:53.847Z,6.06
2023-02-24T02:12:54.478Z,6.07
2023-02-24T02:13:54.837Z,6.05
2023-02-24T02:14:55.310Z,5.99
2023-02-24T02:15:56.054Z,6.1
2023-02-24T02:16:56.439Z,5.99
2023-02-24T02:17:56.631Z,6.05
2023-02-24T02:18:57.004Z,6.05
2023-02-24T02:19:57.533Z,6.06
2023-02-24T02:20:58.145Z,5.99
2023-02-24T02:21:59.105Z,5.99
2023-02-24T02:22:59.307Z,5.99
2023-02-24T02:23:59.675Z,5.98
2023-02-24T02:25:01.021Z,6.07
2023-02-24T02:26:01.279Z,5.99
2023-02-24T02:27:01.484Z,6.01
2023-02-24T02:28:02.404Z,6.17
2023-02-24T02:29:03.649Z,6.15
2023-02-24T02:30:04.572Z,6.13
2023-02-24T02:31:04.978Z,6.05
2023-02-24T02:32:06.038Z,6.06
2023-02-24T02:33:06.142Z,6.1
2023-02-24T02:34:06.133Z,6.12
2023-02-24T02:35:07.156Z,6.12
2023-02-24T02:36:08.102Z,6.15
2023-02-24T02:37:09.369Z,6.06
2023-02-24T02:38:09.563Z,6.13
2023-02-24T02:39:09.911Z,6.01
2023-02-24T02:40:11.121Z,6.12
2023-02-24T02:41:11.490Z,6.07
2023-02-24T02:42:12.090Z,6.1
2023-02-24T02:43:12.574Z,6.07
2023-02-24T02:44:12.797Z,6.15
2023-02-24T02:45:12.447Z,6.05
2023-02-24T02:46:12.967Z,6.12
2023-02-24T02:47:13.972Z,6.01
2023-02-24T02:48:14.882Z,6.05
2023-02-24T02:49:15.791Z,5.99
2023-02-24T02:50:16.031Z,5.99
2023-02-24T02:51:16.767Z,5.95
2023-02-24T02:52:16.941Z,5.98
2023-02-24T02:53:17.911Z,5.98
2023-02-24T02:54:19.120Z,6.05
2023-02-24T02:55:19.031Z,5.98
2023-02-24T02:56:20.358Z,5.99
2023-02-24T02:57:21.380Z,5.94
2023-02-24T02:58:21.862Z,6.05
2023-02-24T02:59:22.792Z,5.94
2023-02-24T03:00:22.698Z,6.1
2023-02-24T03:01:24.648Z,6.01
2023-02-24T03:02:24.307Z,6.1
2023-02-24T03:03:24.813Z,6.09
2023-02-24T03:04:24.875Z,6.02
2023-02-24T03:05:25.293Z,6.05
2023-02-24T03:06:25.575Z,6.1
2023-02-24T03:07:25.528Z,6.02
2023-02-24T03:08:25.901Z,6.05
2023-02-24T03:09:27.129Z,6.06
2023-02-24T03:10:28.378Z,6.05
2023-02-24T03:11:28.906Z,5.98
2023-02-24T03:12:28.878Z,6.09
2023-02-24T03:13:29.798Z,6.06
2023-02-24T03:14:30.008Z,6.06
2023-02-24T03:15:30.965Z,5.98
2023-02-24T03:16:31.018Z,6.07
2023-02-24T03:17:31.425Z,6.02
2023-02-24T03:18:32.051Z,6.07
2023-02-24T03:19:32.557Z,5.94
2023-02-24T03:20:33.077Z,5.99
2023-02-24T03:21:33.451Z,6.01
2023-02-24T03:22:34.126Z,5.91
2023-02-24T03:23:34.345Z,5.97
2023-02-24T03:24:34.887Z,5.92
2023-02-24T03:25:35.134Z,5.95
2023-02-24T03:26:35.683Z,5.98
2023-02-24T03:27:35.890Z,5.91
2023-02-24T03:28:36.256Z,5.98
2023-02-24T03:29:37.172Z,6.05
2023-02-24T03:30:37.502Z,6.06
2023-02-24T03:31:38.633Z,6.09
2023-02-24T03:32:39.425Z,6.1
2023-02-24T03:33:39.036Z,6.13
2023-02-24T03:34:40.268Z,5.98
2023-02-24T03:35:41.206Z,6.15
2023-02-24T03:36:41.410Z,6.1
2023-02-24T03:37:41.806Z,6.06
2023-02-24T03:38:43.018Z,5.97
2023-02-24T03:39:43.281Z,6.06
2023-02-24T03:40:43.696Z,6.02
2023-02-24T03:41:44.458Z,6.09
2023-02-24T03:42:44.956Z,6.16
2023-02-24T03:43:45.630Z,6.12
2023-02-24T03:44:46.119Z,6.06
2023-02-24T03:45:46.444Z,6.07
2023-02-24T03:46:46.793Z,6.06
2023-02-24T03:47:47.412Z,6.07
2023-02-24T03:48:47.612Z,6.1
2023-02-24T03:49:48.579Z,6.05
2023-02-24T03:50:48.881Z,6.07
2023-02-24T03:51:49.207Z,6.05
2023-02-24T03:52:49.458Z,6.02
2023-02-24T03:53:49.376Z,6.06
2023-02-24T03:54:50.575Z,6.05
2023-02-24T03:55:51.214Z,5.95
2023-02-24T03:56:52.513Z,5.92
2023-02-24T03:57:53.166Z,5.91
2023-02-24T03:58:53.786Z,5.8
2023-02-24T03:59:54.703Z,5.81
2023-02-24T04:00:55.951Z,5.81
2023-02-24T04:01:56.657Z,5.8
2023-02-24T04:02:57.020Z,5.81
2023-02-24T04:03:57.218Z,5.74
2023-02-24T04:04:58.770Z,5.83
2023-02-24T04:05:59.132Z,5.83
2023-02-24T04:07:02.025Z,5.81
2023-02-24T04:07:59.995Z,5.83
2023-02-24T04:09:00.916Z,5.79
2023-02-24T04:10:01.128Z,5.87
2023-02-24T04:11:01.360Z,5.81
2023-02-24T04:12:01.702Z,5.81
2023-02-24T04:13:03.002Z,5.9
2023-02-24T04:14:03.618Z,5.91
2023-02-24T04:15:04.554Z,5.94
2023-02-24T04:16:06.044Z,5.91
2023-02-24T04:17:05.833Z,5.88
2023-02-24T04:18:06.752Z,5.92
2023-02-24T04:19:06.710Z,5.91
2023-02-24T04:20:07.338Z,5.91
2023-02-24T04:21:07.882Z,5.81
2023-02-24T04:22:07.688Z,5.92
2023-02-24T04:23:08.959Z,5.87
2023-02-24T04:24:08.896Z,5.83
2023-02-24T04:25:09.541Z,5.88
2023-02-24T04:26:10.471Z,5.9
2023-02-24T04:27:11.009Z,5.81
2023-02-24T04:28:10.980Z,5.92
2023-02-24T04:29:11.488Z,5.9
2023-02-24T04:30:11.405Z,5.92
2023-02-24T04:31:12.644Z,5.94
2023-02-24T04:32:13.929Z,5.9
2023-02-24T04:33:13.603Z,5.97
2023-02-24T04:34:13.935Z,5.97
2023-02-24T04:35:14.855Z,5.92
2023-02-24T04:36:15.377Z,5.88
2023-02-24T04:37:15.898Z,5.79
2023-02-24T04:38:16.581Z,5.77
2023-02-24T04:39:17.064Z,5.76
2023-02-24T04:40:17.426Z,5.83
2023-02-24T04:41:18.859Z,5.81
2023-02-24T04:42:18.450Z,5.83
2023-02-24T04:43:18.724Z,5.73
2023-02-24T04:44:18.662Z,5.87
2023-02-24T04:45:19.571Z,5.8
2023-02-24T04:46:19.998Z,5.81
2023-02-24T04:47:20.014Z,5.87
2023-02-24T04:48:20.912Z,5.91
2023-02-24T04:49:21.845Z,5.92
2023-02-24T04:50:22.823Z,5.94
2023-02-24T04:51:24.432Z,5.92
2023-02-24T04:52:24.701Z,6.01
2023-02-24T04:53:25.223Z,5.87
2023-02-24T04:54:25.445Z,5.9
2023-02-24T04:55:26.119Z,5.88
2023-02-24T04:56:27.048Z,5.9
2023-02-24T04:57:28.367Z,5.88
2023-02-24T04:58:28.591Z,5.88
2023-02-24T04:59:29.259Z,5.95
2023-02-24T05:00:30.456Z,5.88
2023-02-24T05:01:31.377Z,5.83
2023-02-24T05:02:31.829Z,5.84
2023-02-24T05:03:33.209Z,5.94
2023-02-24T05:04:33.378Z,5.87
2023-02-24T05:05:33.728Z,5.88
2023-02-24T05:06:34.970Z,5.83
2023-02-24T05:07:35.451Z,5.95
2023-02-24T05:08:35.707Z,5.92
2023-02-24T05:09:36.331Z,5.91
2023-02-24T05:10:36.546Z,5.91
2023-02-24T05:11:37.755Z,5.91
2023-02-24T05:12:38.114Z,5.99
2023-02-24T05:13:39.023Z,5.94
2023-02-24T05:14:39.215Z,5.88
2023-02-24T05:15:39.838Z,5.9
2023-02-24T05:16:41.224Z,5.92
2023-02-24T05:17:40.146Z,5.95
2023-02-24T05:18:41.047Z,5.88
2023-02-24T05:19:41.397Z,5.81
2023-02-24T05:20:42.611Z,5.76
2023-02-24T05:21:43.992Z,5.74
2023-02-24T05:22:43.989Z,5.72
2023-02-24T05:23:43.954Z,5.73
2023-02-24T05:24:44.860Z,5.67
2023-02-24T05:25:45.092Z,5.7
2023-02-24T05:26:45.584Z,5.67
2023-02-24T05:27:45.561Z,5.64
2023-02-24T05:28:46.978Z,5.56
2023-02-24T05:29:47.280Z,5.58
2023-02-24T05:30:47.253Z,5.67
2023-02-24T05:31:47.917Z,5.7
2023-02-24T05:32:49.251Z,5.67
2023-02-24T05:33:49.206Z,5.72
2023-02-24T05:34:49.864Z,5.77
2023-02-24T05:35:51.391Z,5.81
2023-02-24T05:36:51.607Z,5.81
2023-02-24T05:37:51.861Z,5.84
2023-02-24T05:38:56.514Z,5.84
2023-02-24T05:39:52.904Z,5.8
2023-02-24T05:40:52.825Z,5.88
2023-02-24T05:41:53.318Z,5.91
2023-02-24T05:42:53.686Z,6.01
2023-02-24T05:43:54.597Z,5.97
2023-02-24T05:44:55.514Z,5.91
2023-02-24T05:45:56.166Z,6.02
2023-02-24T05:46:57.377Z,6.09
2023-02-24T05:47:57.446Z,6.05
2023-02-24T05:48:58.013Z,6.05
2023-02-24T05:49:58.240Z,5.95
2023-02-24T05:50:58.145Z,6.1
2023-02-24T05:51:58.694Z,6.09
2023-02-24T05:52:59.060Z,5.99
2023-02-24T05:53:59.305Z,6.16
2023-02-24T05:54:59.317Z,6.06
2023-02-24T05:56:00.530Z,6.06
2023-02-24T05:57:00.748Z,6.09
2023-02-24T05:58:01.763Z,6.02
2023-02-24T05:59:02.720Z,6.02
2023-02-24T06:00:02.966Z,5.99
2023-02-24T06:01:03.900Z,5.99
2023-02-24T06:02:04.722Z,6.1
2023-02-24T06:03:05.124Z,6.1
2023-02-24T06:04:06.286Z,6.12
2023-02-24T06:05:06.926Z,5.99
2023-02-24T06:06:07.561Z,5.94
2023-02-24T06:07:07.814Z,5.88
2023-02-24T06:08:08.087Z,5.95
2023-02-24T06:09:09.417Z,5.87
2023-02-24T06:10:10.079Z,5.9
2023-02-24T06:11:11.028Z,5.94
2023-02-24T06:12:11.963Z,5.92
2023-02-24T06:13:13.269Z,5.91
2023-02-24T06:14:13.469Z,5.98
2023-02-24T06:15:13.987Z,5.92
2023-02-24T06:16:14.050Z,5.91
2023-02-24T06:17:14.118Z,6.06
2023-02-24T06:18:14.775Z,5.99
2023-02-24T06:19:17.781Z,6.06
2023-02-24T06:20:16.569Z,6.02
2023-02-24T06:21:16.206Z,6.1
2023-02-24T06:22:17.676Z,6.06
2023-02-24T06:23:17.775Z,6.01
2023-02-24T06:24:18.332Z,6.16
2023-02-24T06:25:18.680Z,6.05
2023-02-24T06:26:18.695Z,5.98
2023-02-24T06:27:19.922Z,6.15
2023-02-24T06:28:20.747Z,6.17
2023-02-24T06:29:20.786Z,6.1
2023-02-24T06:30:21.322Z,6.13
2023-02-24T06:31:22.856Z,6.2
2023-02-24T06:32:22.336Z,6.22
2023-02-24T06:33:21.914Z,6.16
2023-02-24T06:34:22.862Z,6.34
2023-02-24T06:35:23.092Z,6.38
2023-02-24T06:36:23.791Z,6.31
2023-02-24T06:37:25.301Z,6.31
2023-02-24T06:38:25.503Z,6.22
2023-02-24T06:39:26.041Z,6.36
2023-02-24T06:40:26.713Z,6.31
2023-02-24T06:41:27.722Z,6.35
2023-02-24T06:42:27.661Z,6.38
2023-02-24T06:43:27.834Z,6.38
2023-02-24T06:44:29.158Z,6.34
2023-02-24T06:45:29.359Z,6.39
2023-02-24T06:46:29.970Z,6.36
2023-02-24T06:47:30.201Z,6.39
2023-02-24T06:48:30.695Z,6.35
2023-02-24T06:49:31.336Z,6.41
2023-02-24T06:50:31.987Z,6.47
2023-02-24T06:51:33.483Z,6.47
2023-02-24T06:52:34.451Z,6.46
2023-02-24T06:53:35.267Z,6.44
2023-02-24T06:54:36.945Z,6.47
2023-02-24T06:55:37.152Z,6.44
2023-02-24T06:56:38.344Z,6.52
2023-02-24T06:57:38.309Z,6.46
2023-02-24T06:58:39.372Z,6.56
2023-02-24T06:59:40.311Z,6.64
2023-02-24T07:00:40.545Z,6.59
2023-02-24T07:01:41.054Z,6.62
2023-02-24T07:02:41.036Z,6.62
2023-02-24T07:03:41.668Z,6.59
2023-02-24T07:04:41.981Z,6.64
2023-02-24T07:05:41.961Z,6.62
2023-02-24T07:06:42.321Z,6.7
2023-02-24T07:07:43.332Z,6.7
2023-02-24T07:08:43.547Z,6.71
2023-02-24T07:09:44.791Z,6.75
2023-02-24T07:10:45.000Z,6.92
2023-02-24T07:11:47.029Z,6.87
2023-02-24T07:12:45.936Z,6.9
2023-02-24T07:13:45.980Z,6.9
2023-02-24T07:14:46.328Z,7
2023-02-24T07:15:47.253Z,6.95
2023-02-24T07:16:47.928Z,7.08
2023-02-24T07:17:48.770Z,7.14
2023-02-24T07:18:48.453Z,7.15
2023-02-24T07:19:49.084Z,7.25
2023-02-24T07:20:50.013Z,7.43
2023-02-24T07:21:50.949Z,7.41
2023-02-24T07:22:52.200Z,7.41
2023-02-24T07:23:52.244Z,7.44
2023-02-24T07:24:52.774Z,7.51
2023-02-24T07:25:53.999Z,7.59
2023-02-24T07:26:54.219Z,7.74
2023-02-24T07:27:54.890Z,7.69
2023-02-24T07:28:56.169Z,7.84
2023-02-24T07:29:58.953Z,7.87
2023-02-24T07:30:57.201Z,8.44
2023-02-24T07:31:58.464Z,8.95
2023-02-24T07:32:58.075Z,9.39
2023-02-24T07:33:59.061Z,9.82
2023-02-24T07:35:00.002Z,10.43
2023-02-24T07:36:01.213Z,10.86
2023-02-24T07:37:01.419Z,11.22
2023-02-24T07:38:01.696Z,11.59
2023-02-24T07:39:01.908Z,11.99
2023-02-24T07:40:02.258Z,12.07
2023-02-24T07:41:02.223Z,12.15
2023-02-24T07:42:03.430Z,12.02
2023-02-24T07:43:03.711Z,11.89
2023-02-24T07:44:04.200Z,11.68
2023-02-24T07:45:04.936Z,11.43
2023-02-24T07:46:05.446Z,11.4
2023-02-24T07:47:05.568Z,11.33
2023-02-24T07:48:07.420Z,11.41
2023-02-24T07:49:07.448Z,11.43
2023-02-24T07:50:07.854Z,11.58
2023-02-24T07:51:08.817Z,11.63
2023-02-24T07:52:09.454Z,11.62
2023-02-24T07:53:10.143Z,11.56
2023-02-24T07:54:10.494Z,11.45
2023-02-24T07:55:11.199Z,11.45
2023-02-24T07:56:11.434Z,11.4
2023-02-24T07:57:12.010Z,11.37
2023-02-24T07:58:12.244Z,11.15
2023-02-24T08:00:15.192Z,10.86
2023-02-24T08:01:14.117Z,10.86
2023-02-24T08:02:14.754Z,10.77
2023-02-24T08:03:15.517Z,10.65
2023-02-24T08:04:16.307Z,10.62
2023-02-24T08:05:17.364Z,10.61
2023-02-24T08:06:17.692Z,10.59
2023-02-24T08:07:18.341Z,10.51
2023-02-24T08:08:18.956Z,10.53
2023-02-24T08:09:18.908Z,10.42
2023-02-24T08:10:19.447Z,10.38
2023-02-24T08:11:20.343Z,10.41
2023-02-24T08:12:20.399Z,10.23
2023-02-24T08:13:21.622Z,10.24
2023-02-24T08:14:21.989Z,10.28
2023-02-24T08:15:22.862Z,10.24
2023-02-24T08:16:23.571Z,10.24
2023-02-24T08:17:24.580Z,10.24
2023-02-24T08:18:25.107Z,10.23
2023-02-24T08:19:25.057Z,10.17
2023-02-24T08:20:26.283Z,10.27
2023-02-24T08:21:26.850Z,10.12
2023-02-24T08:22:27.346Z,10.09
2023-02-24T08:23:28.295Z,10.1
2023-02-24T08:24:30.900Z,10.1
2023-02-24T08:25:28.883Z,10.15
2023-02-24T08:26:29.247Z,10.18
2023-02-24T08:27:29.618Z,10.12
2023-02-24T08:28:29.855Z,10.12
2023-02-24T08:29:30.404Z,10.1
2023-02-24T08:30:30.761Z,10.09
2023-02-24T08:31:31.925Z,10.06
2023-02-24T08:32:31.719Z,10.09
2023-02-24T08:33:32.171Z,10.1
2023-02-24T08:34:33.210Z,10.21
2023-02-24T08:35:33.424Z,10.15
2023-02-24T08:36:34.278Z,10.27
2023-02-24T08:37:34.363Z,10.28
2023-02-24T08:38:35.746Z,10.34
2023-02-24T08:39:35.682Z,10.34
2023-02-24T08:40:36.958Z,10.33
2023-02-24T08:41:37.167Z,10.38
2023-02-24T08:42:37.684Z,10.41
2023-02-24T08:43:37.899Z,10.3
2023-02-24T08:44:39.495Z,10.28
2023-02-24T08:45:39.208Z,10.28
2023-02-24T08:46:40.366Z,10.28
2023-02-24T08:47:41.021Z,10.39
2023-02-24T08:48:40.947Z,10.43
2023-02-24T08:49:41.489Z,10.39
2023-02-24T08:50:41.586Z,10.51
2023-02-24T08:51:42.540Z,10.64
2023-02-24T08:52:42.766Z,10.71
2023-02-24T08:53:43.014Z,11.08
2023-02-24T08:54:43.350Z,11.22
2023-02-24T08:55:43.605Z,11.7
2023-02-24T08:56:44.280Z,11.76
2023-02-24T08:57:44.789Z,12.3
2023-02-24T08:58:45.311Z,12.37
2023-02-24T08:59:45.849Z,12.53
2023-02-24T09:00:46.217Z,12.65
2023-02-24T09:02:02.775Z,13.05
2023-02-24T09:02:47.469Z,13.62
2023-02-24T09:03:47.726Z,14.37
2023-02-24T09:04:48.792Z,14.85
2023-02-24T09:05:48.598Z,15.35
2023-02-24T09:06:52.530Z,15.33
2023-02-24T09:07:50.212Z,15.55
2023-02-24T09:08:50.779Z,15.43
2023-02-24T09:09:51.009Z,15.5
2023-02-24T09:10:51.445Z,15.65
2023-02-24T09:11:51.657Z,15.83
2023-02-24T09:12:52.080Z,16.08
2023-02-24T09:13:52.175Z,16.39
2023-02-24T09:14:52.830Z,16.64
2023-02-24T09:15:52.788Z,16.99
2023-02-24T09:16:53.815Z,16.98
2023-02-24T09:17:54.530Z,17.02
2023-02-24T09:18:55.765Z,16.94
2023-02-24T09:19:56.745Z,16.82
2023-02-24T09:20:57.387Z,16.66
2023-02-24T09:21:57.764Z,16.55
2023-02-24T09:22:58.831Z,16.34
2023-02-24T09:23:59.515Z,16.06
2023-02-24T09:24:59.634Z,15.72
2023-02-24T09:26:00.821Z,15.54
2023-02-24T09:27:00.784Z,15.32
2023-02-24T09:28:02.165Z,15.32
2023-02-24T09:29:01.866Z,15.22
2023-02-24T09:30:02.420Z,15.05
2023-02-24T09:31:02.556Z,15.12
2023-02-24T09:32:03.903Z,15.14
2023-02-24T09:33:04.206Z,15.07
2023-02-24T09:34:04.156Z,15.18
2023-02-24T09:35:04.961Z,15.3
2023-02-24T09:36:04.922Z,15.67
2023-02-24T09:37:05.660Z,15.78
2023-02-24T09:38:05.648Z,15.91
2023-02-24T09:39:07.106Z,16.05
2023-02-24T09:40:07.327Z,16.21
2023-02-24T09:41:23.103Z,16.43
2023-02-24T09:42:08.105Z,16.58
2023-02-24T09:43:09.467Z,16.83
2023-02-24T09:44:09.878Z,16.86
2023-02-24T09:45:10.632Z,16.83
2023-02-24T09:46:11.456Z,16.86
2023-02-24T09:47:11.212Z,16.98
2023-02-24T09:48:12.162Z,16.92
2023-02-24T09:49:12.556Z,16.83
2023-02-24T09:50:12.576Z,16.61
2023-02-24T09:51:12.874Z,16.55
2023-02-24T09:52:13.660Z,16.43
2023-02-24T09:53:17.886Z,16.58
2023-02-24T09:54:15.205Z,16.65
2023-02-24T09:55:15.530Z,16.74
2023-02-24T09:56:16.172Z,16.8
2023-02-24T09:57:17.154Z,16.82
2023-02-24T09:58:17.162Z,16.8
2023-02-24T09:59:17.438Z,16.74
2023-02-24T10:00:18.228Z,16.86
2023-02-24T10:01:20.000Z,16.8
2023-02-24T10:02:19.757Z,16.68
2023-02-24T10:03:19.976Z,16.73
2023-02-24T10:04:26.034Z,16.76
2023-02-24T10:05:20.589Z,16.76
2023-02-24T10:06:21.694Z,16.8
2023-02-24T10:07:22.628Z,16.79
2023-02-24T10:08:23.627Z,16.76
2023-02-24T10:09:24.332Z,16.74
2023-02-24T10:10:26.078Z,16.82
2023-02-24T10:11:26.279Z,16.82
2023-02-24T10:12:26.343Z,16.97
2023-02-24T10:13:27.367Z,16.92
2023-02-24T10:14:44.456Z,16.91
2023-02-24T10:15:38.429Z,16.84
2023-02-24T10:16:38.892Z,16.92
2023-02-24T10:17:39.093Z,16.82
2023-02-24T10:18:39.359Z,16.79
2023-02-24T10:19:40.336Z,16.76
2023-02-24T10:20:40.980Z,16.91
2023-02-24T10:21:40.526Z,16.8
2023-02-24T10:22:41.849Z,16.8
2023-02-24T10:23:43.871Z,16.8
2023-02-24T10:24:43.814Z,16.83
2023-02-24T10:25:44.629Z,16.65
2023-02-24T10:27:08.109Z,16.61
2023-02-24T10:27:46.065Z,16.66
2023-02-24T10:28:46.709Z,16.5
2023-02-24T10:29:47.686Z,16.39
2023-02-24T10:30:48.027Z,16.24
2023-02-24T10:31:49.941Z,16.18
2023-02-24T10:32:49.891Z,16.21
2023-02-24T10:33:49.975Z,16.16
2023-02-24T10:34:50.031Z,16.08
2023-02-24T10:35:51.337Z,16.02
2023-02-24T10:36:52.274Z,15.87
2023-02-24T10:37:52.613Z,15.85
2023-02-24T10:38:52.864Z,15.91
2023-02-24T10:39:56.995Z,15.81
2023-02-24T10:40:54.644Z,15.84
2023-02-24T10:41:55.535Z,15.78
2023-02-24T10:42:55.723Z,15.73
2023-02-24T10:43:56.326Z,15.7
2023-02-24T10:45:10.480Z,15.65
2023-02-24T10:46:02.596Z,15.6
2023-02-24T10:47:02.783Z,15.43
2023-02-24T10:48:04.316Z,15.41
2023-02-24T10:49:04.599Z,15.3
2023-02-24T10:50:04.829Z,15.27
2023-02-24T10:51:05.333Z,15.18
2023-02-24T10:52:06.357Z,15.17
2023-02-24T10:53:06.583Z,15.17
2023-02-24T10:54:06.249Z,15.07
2023-02-24T10:55:06.962Z,15.12
2023-02-24T10:56:08.313Z,15.08
2023-02-24T10:57:08.758Z,15.04
2023-02-24T10:58:10.059Z,15
2023-02-24T10:59:10.279Z,15.14
2023-02-24T11:00:10.337Z,15
2023-02-24T11:01:11.805Z,15.12
2023-02-24T11:02:12.077Z,15.12
2023-02-24T11:03:17.444Z,15.14
2023-02-24T11:04:12.996Z,15.22
2023-02-24T11:05:13.208Z,15.22
2023-02-24T11:06:13.863Z,15.32
2023-02-24T11:07:14.781Z,15.35
2023-02-24T11:08:15.492Z,15.29
2023-02-24T11:09:16.009Z,15.22
2023-02-24T11:10:16.236Z,15.23
2023-02-24T11:11:16.475Z,15.25
2023-02-24T11:12:16.864Z,15.18
2023-02-24T11:13:17.121Z,15.19
2023-02-24T11:14:17.769Z,15.17
2023-02-24T11:15:18.454Z,15.12
2023-02-24T11:16:20.040Z,15.14
2023-02-24T11:17:20.685Z,15.07
2023-02-24T11:18:21.741Z,15
2023-02-24T11:19:22.242Z,15.1
2023-02-24T11:20:22.630Z,15
2023-02-24T11:21:23.721Z,14.97
2023-02-24T11:22:24.138Z,14.97
2023-02-24T11:23:25.114Z,15.08
2023-02-24T11:24:25.108Z,15
2023-02-24T11:25:26.066Z,15.08
2023-02-24T11:26:26.844Z,15.07
2023-02-24T11:27:27.372Z,15
2023-02-24T11:28:28.048Z,14.79
2023-02-24T11:29:28.590Z,14.79
2023-02-24T11:30:29.324Z,14.82
2023-02-24T11:31:30.753Z,14.82
2023-02-24T11:32:31.203Z,14.77
2023-02-24T11:33:30.892Z,14.85
2023-02-24T11:34:31.829Z,14.86
2023-02-24T11:35:32.499Z,14.82
2023-02-24T11:36:32.687Z,14.89
2023-02-24T11:37:33.900Z,14.78
2023-02-24T11:38:34.127Z,14.74
2023-02-24T11:39:35.045Z,14.78
2023-02-24T11:40:36.319Z,14.79
2023-02-24T11:41:37.249Z,14.86
2023-02-24T11:42:38.184Z,14.81
2023-02-24T11:43:38.178Z,14.71
2023-02-24T11:44:38.408Z,14.68
2023-02-24T11:45:38.945Z,14.63
2023-02-24T11:46:39.633Z,14.61
2023-02-24T11:47:40.508Z,14.58
2023-02-24T11:48:40.759Z,14.59
2023-02-24T11:49:40.999Z,14.63
2023-02-24T11:50:42.234Z,14.62
2023-02-24T11:51:42.442Z,14.66
2023-02-24T11:52:43.499Z,14.62
2023-02-24T11:53:43.785Z,14.66
2023-02-24T11:54:43.833Z,14.56
2023-02-24T11:55:44.874Z,14.52
2023-02-24T11:56:45.063Z,14.53
2023-02-24T11:57:46.281Z,14.61
2023-02-24T11:58:47.220Z,14.61
2023-02-24T11:59:46.947Z,14.55
2023-02-24T12:00:48.585Z,14.48
2023-02-24T12:01:48.513Z,14.45
2023-02-24T12:02:49.250Z,14.41
2023-02-24T12:03:50.133Z,14.43
2023-02-24T12:04:50.445Z,14.36
2023-02-24T12:05:50.580Z,14.38
2023-02-24T12:06:50.560Z,14.26
2023-02-24T12:07:51.931Z,14.31
2023-02-24T12:08:52.162Z,14.2
2023-02-24T12:10:03.950Z,14.13
2023-02-24T12:10:53.561Z,14.01
2023-02-24T12:11:53.820Z,14.04
2023-02-24T12:12:54.440Z,14.12
2023-02-24T12:13:55.008Z,14.05
2023-02-24T12:14:55.526Z,14.03
2023-02-24T12:15:56.555Z,14.04
2023-02-24T12:16:57.247Z,14.08
2023-02-24T12:17:58.283Z,14.07
2023-02-24T12:18:58.938Z,14.04
2023-02-24T12:20:00.197Z,14.15
2023-02-24T12:21:00.194Z,14.19
2023-02-24T12:22:01.141Z,14.22
2023-02-24T12:23:01.864Z,14.28
2023-02-24T12:24:03.104Z,14.3
2023-02-24T12:25:03.862Z,14.3
2023-02-24T12:26:03.827Z,14.37
2023-02-24T12:27:04.696Z,14.37
2023-02-24T12:28:05.931Z,14.52
2023-02-24T12:29:06.481Z,14.44
2023-02-24T12:30:07.341Z,14.55
2023-02-24T12:31:07.496Z,14.66
2023-02-24T12:32:08.300Z,14.68
2023-02-24T12:33:09.455Z,14.71
2023-02-24T12:34:09.984Z,14.77
2023-02-24T12:35:10.486Z,14.79
2023-02-24T12:36:10.699Z,14.74
2023-02-24T12:37:11.013Z,14.87
2023-02-24T12:38:11.533Z,14.73
2023-02-24T12:39:11.772Z,14.9
2023-02-24T12:40:11.499Z,14.92
2023-02-24T12:41:12.493Z,15.07
2023-02-24T12:42:13.514Z,15.07
2023-02-24T12:43:14.729Z,15.07
2023-02-24T12:44:15.320Z,15.05
2023-02-24T12:45:15.665Z,15.04
2023-02-24T12:46:16.777Z,15.15
2023-02-24T12:47:17.625Z,15.08
2023-02-24T12:48:18.886Z,15.02
2023-02-24T12:49:19.863Z,15.02
2023-02-24T12:50:20.427Z,15.17
2023-02-24T12:51:21.740Z,15.04
2023-02-24T12:52:20.910Z,15.05
2023-02-24T12:53:20.858Z,15.14
2023-02-24T12:54:21.506Z,15.18
2023-02-24T12:55:22.768Z,15.12
2023-02-24T12:56:24.149Z,15.12
2023-02-24T12:57:24.198Z,15.15
2023-02-24T12:58:25.322Z,15.08
2023-02-24T12:59:26.142Z,15.14
2023-02-24T13:00:26.742Z,15.15
2023-02-24T13:01:27.448Z,15.19
2023-02-24T13:02:27.931Z,15.25
2023-02-24T13:03:28.086Z,15.22
2023-02-24T13:04:28.897Z,15.25
2023-02-24T13:05:29.121Z,15.22
2023-02-24T13:06:29.625Z,15.25
2023-02-24T13:07:30.439Z,15.15
2023-02-24T13:08:31.676Z,15.29
2023-02-24T13:09:31.624Z,15.27
2023-02-24T13:10:32.861Z,15.3
2023-02-24T13:11:32.857Z,15.35
2023-02-24T13:12:33.798Z,15.41
2023-02-24T13:13:34.333Z,15.43
2023-02-24T13:14:34.890Z,15.39
2023-02-24T13:15:34.552Z,15.57
2023-02-24T13:16:35.708Z,15.52
2023-02-24T13:17:36.025Z,15.47
2023-02-24T13:18:36.348Z,15.41
2023-02-24T13:19:37.268Z,15.55